Time;durP1;ratioP1;P1;durP2;ratioP2;P2;SDS_P1;SDS_P2;PMS_P1;PMS_P2;Temp;Humidity;BMP_temperature;BMP_pressure;BME280_temperature;BME280_humidity;BME280_pressure;Samples;Min_cycle;Max_cycle;Signal;HPM_P1;HPM_P2
2022/04/25 00:01:06;;;;;;;10.27;9.27;;;10.60;99.60;;;;;;5043303;28;20197;-47
2022/04/25 00:03:32;;;;;;;9.87;8.87;;;10.50;99.60;;;;;;5077524;28;20459;-46
2022/04/25 00:05:58;;;;;;;10.70;9.70;;;10.60;99.60;;;;;;5077320;28;20216;-47
2022/04/25 00:08:23;;;;;;;10.00;9.07;;;10.60;99.70;;;;;;5073527;28;20217;-46
2022/04/25 00:10:49;;;;;;;8.00;7.30;;;10.50;99.70;;;;;;5077162;28;20551;-47
2022/04/25 00:13:15;;;;;;;8.63;7.83;;;10.50;99.70;;;;;;5076299;28;20194;-46
2022/04/25 00:15:41;;;;;;;8.97;7.83;;;10.60;99.70;;;;;;5077766;28;20273;-47
2022/04/25 00:18:07;;;;;;;8.50;7.70;;;10.50;99.80;;;;;;5077511;28;20436;-47
2022/04/25 00:20:33;;;;;;;6.83;6.23;;;10.60;99.70;;;;;;5077408;28;20844;-47
2022/04/25 00:23:04;;;;;;;8.60;7.80;;;10.60;99.70;;;;;;5077372;28;20424;-46
2022/04/25 00:25:30;;;;;;;7.87;7.17;;;10.60;99.70;;;;;;5060261;28;20288;-46
2022/04/25 00:27:56;;;;;;;7.90;7.13;;;10.60;99.60;;;;;;5059360;28;20765;-46
2022/04/25 00:30:22;;;;;;;8.20;7.40;;;10.60;99.60;;;;;;5076858;28;20545;-47
2022/04/25 00:32:47;;;;;;;7.57;6.87;;;10.60;99.60;;;;;;5076648;28;20318;-47
2022/04/25 00:35:13;;;;;;;7.80;7.10;;;10.60;99.60;;;;;;5077004;28;20657;-46
2022/04/25 00:37:38;;;;;;;9.13;8.23;;;10.60;99.60;;;;;;5074727;28;20177;-46
2022/04/25 00:40:04;;;;;;;8.40;7.60;;;10.60;99.70;;;;;;5077203;28;20253;-46
2022/04/25 00:42:30;;;;;;;9.20;8.30;;;10.60;99.60;;;;;;5075995;28;20196;-46
2022/04/25 00:44:59;;;;;;;9.40;8.60;;;10.60;99.60;;;;;;5060010;28;20708;-47
2022/04/25 00:47:26;;;;;;;9.07;8.20;;;10.50;99.50;;;;;;5077237;28;20182;-46
2022/04/25 00:49:51;;;;;;;11.10;10.07;;;10.50;99.60;;;;;;5076960;28;20432;-46
2022/04/25 00:52:17;;;;;;;11.53;10.43;;;10.60;99.70;;;;;;5077128;28;20514;-47
2022/04/25 00:54:43;;;;;;;13.03;11.83;;;10.60;99.70;;;;;;5074647;28;20630;-47
2022/04/25 00:57:09;;;;;;;15.00;13.40;;;10.60;99.60;;;;;;5077080;28;20243;-47
2022/04/25 00:59:36;;;;;;;14.50;13.20;;;10.60;99.60;;;;;;5077136;28;20439;-47
2022/04/25 01:02:03;;;;;;;16.57;15.07;;;10.60;99.50;;;;;;5077232;28;20506;-47
2022/04/25 01:04:29;;;;;;;17.97;16.07;;;10.60;99.50;;;;;;5077165;28;20431;-46
2022/04/25 01:06:55;;;;;;;19.73;17.93;;;10.60;99.50;;;;;;5080750;28;20461;-47
2022/04/25 01:09:20;;;;;;;19.23;17.50;;;10.60;99.40;;;;;;5077917;28;20865;-46
2022/04/25 01:11:47;;;;;;;21.23;19.23;;;10.60;99.70;;;;;;5079834;28;20264;-47
2022/04/25 01:14:23;;;;;;;20.20;18.40;;;10.50;99.40;;;;;;5080571;28;20193;-47
2022/04/25 01:16:49;;;;;;;22.70;20.67;;;10.50;99.40;;;;;;5075990;28;20476;-47
2022/04/25 01:19:15;;;;;;;21.97;19.97;;;10.50;99.40;;;;;;5080913;28;20501;-46
2022/04/25 01:21:50;;;;;;;22.57;20.47;;;10.50;99.40;;;;;;5080361;28;20186;-47
2022/04/25 01:29:57;;;;;;;21.97;19.87;;;10.50;99.20;;;;;;5043997;28;20481;-47
2022/04/25 01:32:24;;;;;;;22.53;20.53;;;10.50;99.10;;;;;;5080669;28;20450;-46
2022/04/25 01:34:50;;;;;;;24.83;22.53;;;10.50;99.10;;;;;;5078103;28;20232;-46
2022/04/25 01:37:17;;;;;;;25.07;22.83;;;10.40;99.00;;;;;;5080062;28;20699;-46
2022/04/25 01:39:52;;;;;;;26.47;24.07;;;10.40;98.90;;;;;;5079823;28;20442;-46
2022/04/25 01:42:20;;;;;;;24.50;22.20;;;10.40;98.80;;;;;;5079899;28;20852;-47
2022/04/25 01:44:46;;;;;;;23.83;21.73;;;10.40;98.70;;;;;;5080074;28;21008;-46
2022/04/25 01:47:11;;;;;;;25.07;22.67;;;10.40;98.70;;;;;;5062133;28;20498;-47
2022/04/25 01:49:38;;;;;;;26.20;23.70;;;10.40;98.60;;;;;;5077760;28;20188;-46
2022/04/25 01:52:11;;;;;;;25.47;22.97;;;10.40;98.60;;;;;;5080018;28;20192;-46
2022/04/25 01:54:36;;;;;;;25.93;23.50;;;10.30;98.50;;;;;;5077593;28;20801;-46
2022/04/25 01:57:02;;;;;;;26.47;23.90;;;10.40;98.50;;;;;;5079602;28;20427;-47
2022/04/25 01:59:30;;;;;;;26.60;24.17;;;10.30;98.50;;;;;;5079482;28;20190;-46
2022/04/25 02:01:56;;;;;;;25.13;22.73;;;10.30;98.50;;;;;;5078764;28;20181;-46
2022/04/25 02:04:22;;;;;;;25.63;23.20;;;10.30;98.40;;;;;;5079623;28;20477;-46
2022/04/25 02:06:48;;;;;;;25.27;22.97;;;10.30;98.50;;;;;;5059317;28;20182;-47
2022/04/25 02:09:14;;;;;;;25.07;22.67;;;10.30;98.50;;;;;;5079445;28;20187;-46
2022/04/25 02:11:40;;;;;;;26.33;23.93;;;10.30;98.50;;;;;;5077700;28;20438;-47
2022/04/25 02:14:05;;;;;;;26.23;23.83;;;10.30;98.40;;;;;;5079718;28;20185;-46
2022/04/25 02:16:31;;;;;;;25.63;23.17;;;10.20;98.30;;;;;;5077764;28;20213;-47
2022/04/25 02:18:57;;;;;;;25.30;23.00;;;10.20;98.30;;;;;;5078593;28;20235;-46
2022/04/25 02:21:23;;;;;;;26.07;23.70;;;10.20;98.30;;;;;;5076569;28;20920;-46
2022/04/25 02:23:49;;;;;;;26.37;23.97;;;10.10;98.60;;;;;;5078129;28;20185;-46
2022/04/25 02:26:15;;;;;;;27.73;24.93;;;10.10;98.20;;;;;;5075899;28;20485;-46
2022/04/25 02:28:40;;;;;;;25.07;22.67;;;10.10;98.10;;;;;;5078565;28;20181;-47
2022/04/25 02:31:07;;;;;;;25.17;22.83;;;10.00;98.10;;;;;;5075846;28;20198;-46
2022/04/25 02:33:34;;;;;;;26.67;24.17;;;10.00;98.00;;;;;;5078704;28;20472;-46
2022/04/25 02:36:01;;;;;;;25.50;23.10;;;10.00;98.10;;;;;;5075946;28;20482;-46
2022/04/25 02:38:26;;;;;;;25.30;22.93;;;9.90;98.60;;;;;;5079113;28;20686;-46
2022/04/25 02:41:04;;;;;;;26.00;23.50;;;9.90;98.60;;;;;;5078584;28;20464;-47
2022/04/25 02:43:50;;;;;;;24.90;22.47;;;9.90;98.60;;;;;;5078096;28;20189;-47
2022/04/25 02:46:16;;;;;;;24.73;22.33;;;9.90;98.70;;;;;;5077990;28;20573;-47
2022/04/25 02:48:44;;;;;;;26.90;24.30;;;9.80;98.60;;;;;;5078800;28;20423;-47
2022/04/25 02:51:11;;;;;;;25.33;22.93;;;9.80;98.70;;;;;;5077567;28;20438;-47
2022/04/25 02:53:37;;;;;;;25.27;22.87;;;9.80;98.70;;;;;;5078174;28;20408;-46
2022/04/25 02:56:03;;;;;;;26.63;24.03;;;9.80;99.00;;;;;;5077530;28;20503;-47
2022/04/25 02:58:30;;;;;;;25.70;23.20;;;9.80;98.80;;;;;;5061272;28;20420;-47
2022/04/25 03:00:57;;;;;;;26.57;23.97;;;9.80;98.90;;;;;;5056831;28;20620;-46
2022/04/25 03:03:24;;;;;;;24.63;22.43;;;9.80;98.90;;;;;;5078554;28;20419;-47
2022/04/25 03:05:51;;;;;;;24.17;21.97;;;9.80;99.00;;;;;;5074337;28;20455;-46
2022/04/25 03:08:18;;;;;;;24.03;21.93;;;9.80;99.10;;;;;;5078298;28;20411;-46
2022/04/25 03:10:45;;;;;;;24.50;22.30;;;9.80;99.10;;;;;;5076889;28;20857;-47
2022/04/25 03:13:11;;;;;;;23.77;21.50;;;9.80;99.20;;;;;;5076825;28;20760;-47
2022/04/25 03:15:38;;;;;;;26.10;23.70;;;9.80;99.20;;;;;;5073722;28;20586;-47
2022/04/25 03:18:05;;;;;;;24.40;22.30;;;9.80;99.20;;;;;;5059568;28;20764;-47
2022/04/25 03:20:31;;;;;;;25.67;23.30;;;9.80;99.30;;;;;;5075190;28;20431;-46
2022/04/25 03:22:58;;;;;;;25.13;22.77;;;9.80;99.40;;;;;;5059887;28;20412;-47
2022/04/25 03:25:24;;;;;;;22.30;20.20;;;9.80;99.50;;;;;;5075261;28;20466;-46
2022/04/25 03:27:51;;;;;;;25.20;22.90;;;9.70;99.50;;;;;;5066634;28;20436;-46
2022/04/25 03:30:17;;;;;;;24.07;21.67;;;9.70;99.60;;;;;;5077944;28;20814;-46
2022/04/25 03:32:46;;;;;;;26.30;23.70;;;9.70;99.70;;;;;;5077333;28;20438;-46
2022/04/25 03:35:13;;;;;;;24.23;22.03;;;9.70;99.70;;;;;;5074759;28;20923;-46
2022/04/25 03:37:39;;;;;;;24.47;22.20;;;9.60;99.60;;;;;;5077643;28;20419;-46
2022/04/25 03:40:06;;;;;;;23.20;21.03;;;9.60;99.60;;;;;;5074805;28;20478;-47
2022/04/25 03:42:33;;;;;;;22.37;20.33;;;9.60;99.60;;;;;;5076506;28;20823;-46
2022/04/25 03:45:00;;;;;;;23.50;21.27;;;9.60;99.60;;;;;;5074942;28;20439;-47
2022/04/25 03:47:26;;;;;;;23.60;21.40;;;9.60;99.60;;;;;;5075546;28;20416;-46
2022/04/25 03:49:52;;;;;;;22.77;20.77;;;9.50;99.60;;;;;;5072828;28;20439;-47
2022/04/25 03:52:18;;;;;;;23.40;21.07;;;9.50;99.60;;;;;;5074204;28;20825;-46
2022/04/25 03:57:27;;;;;;;23.30;21.03;;;9.50;99.60;;;;;;5074577;28;20181;-46
2022/04/25 03:59:53;;;;;;;23.53;21.33;;;9.50;99.50;;;;;;5073585;28;20435;-46
2022/04/25 04:02:19;;;;;;;23.07;21.00;;;9.40;99.40;;;;;;5073732;28;20179;-46
2022/04/25 04:04:44;;;;;;;24.20;22.07;;;9.40;99.40;;;;;;5074832;28;20360;-47
2022/04/25 04:07:10;;;;;;;23.77;21.53;;;9.40;99.40;;;;;;5075326;28;20177;-47
2022/04/25 04:09:46;;;;;;;23.63;21.47;;;9.40;99.40;;;;;;5074135;28;20292;-47
2022/04/25 04:12:15;;;;;;;23.80;21.60;;;9.40;99.30;;;;;;5074349;28;20411;-47
2022/04/25 04:14:42;;;;;;;24.63;22.23;;;9.40;99.30;;;;;;5071738;28;20798;-46
2022/04/25 04:17:08;;;;;;;25.33;22.83;;;9.40;99.30;;;;;;5073352;28;20431;-46
2022/04/25 04:19:38;;;;;;;22.93;20.77;;;9.40;99.30;;;;;;5071308;28;20931;-46
2022/04/25 04:22:05;;;;;;;21.83;19.77;;;9.40;99.40;;;;;;5074775;28;20667;-46
2022/04/25 04:24:31;;;;;;;23.50;21.30;;;9.40;99.40;;;;;;5071755;28;20467;-46
2022/04/25 04:27:01;;;;;;;23.43;21.13;;;9.40;99.40;;;;;;5071207;28;20420;-46
2022/04/25 04:29:29;;;;;;;22.93;20.77;;;9.40;99.40;;;;;;5071948;28;20747;-46
2022/04/25 04:31:58;;;;;;;21.60;19.60;;;9.40;99.40;;;;;;5072860;28;20408;-46
2022/04/25 04:34:24;;;;;;;22.10;20.10;;;9.40;99.40;;;;;;5064042;28;20436;-46
2022/04/25 04:36:51;;;;;;;23.77;21.57;;;9.50;99.50;;;;;;5066351;28;20899;-46
2022/04/25 04:39:17;;;;;;;24.43;22.03;;;9.50;99.50;;;;;;5064128;28;20869;-46
2022/04/25 04:41:42;;;;;;;24.03;21.73;;;9.60;99.50;;;;;;5062230;28;160605;-46
2022/04/25 04:44:08;;;;;;;25.63;23.23;;;9.60;99.50;;;;;;5073532;28;20439;-46
2022/04/25 04:46:34;;;;;;;26.70;24.20;;;9.60;99.50;;;;;;5075022;28;20190;-46
2022/04/25 04:48:59;;;;;;;22.90;20.80;;;9.60;99.50;;;;;;5060910;28;20567;-46
2022/04/25 04:51:25;;;;;;;24.97;22.57;;;9.60;99.60;;;;;;5056378;28;20521;-46
2022/04/25 04:53:50;;;;;;;23.47;21.33;;;9.70;99.50;;;;;;5038351;28;20216;-46
2022/04/25 04:56:16;;;;;;;24.20;21.90;;;9.70;99.50;;;;;;5058250;28;20241;-46
2022/04/25 04:58:42;;;;;;;24.57;22.37;;;9.70;99.50;;;;;;5056925;28;20568;-46
2022/04/25 05:01:08;;;;;;;23.70;21.60;;;9.70;99.50;;;;;;5075023;28;20185;-46
2022/04/25 05:03:34;;;;;;;25.30;22.87;;;9.70;99.50;;;;;;5051286;28;20587;-46
2022/04/25 05:06:00;;;;;;;26.80;24.30;;;9.80;99.50;;;;;;5055321;28;20177;-46
2022/04/25 05:08:26;;;;;;;27.30;24.70;;;9.80;99.40;;;;;;5074433;28;20621;-46
2022/04/25 05:10:54;;;;;;;23.80;21.60;;;9.80;99.40;;;;;;5075091;28;20231;-47
2022/04/25 05:13:20;;;;;;;25.13;22.80;;;9.80;99.40;;;;;;5075538;28;20533;-46
2022/04/25 05:15:46;;;;;;;24.50;22.20;;;9.90;99.40;;;;;;5071927;28;20823;-44
2022/04/25 05:18:12;;;;;;;25.17;22.80;;;9.90;99.40;;;;;;5057019;28;20825;-44
2022/04/25 05:20:38;;;;;;;24.53;22.23;;;10.00;98.90;;;;;;5075333;28;20497;-44
2022/04/25 05:23:04;;;;;;;24.57;22.27;;;10.00;98.80;;;;;;5075220;28;20275;-44
2022/04/25 05:25:29;;;;;;;24.17;21.87;;;10.10;98.80;;;;;;5072563;28;20263;-47
2022/04/25 05:27:56;;;;;;;26.47;23.97;;;10.20;98.80;;;;;;5075363;28;20456;-47
2022/04/25 05:30:23;;;;;;;25.70;23.10;;;10.20;98.80;;;;;;5061097;28;20231;-47
2022/04/25 05:32:50;;;;;;;22.90;20.80;;;10.20;98.70;;;;;;5052698;28;20413;-47
2022/04/25 05:35:18;;;;;;;23.60;21.30;;;10.30;98.70;;;;;;5052720;28;20464;-47
2022/04/25 05:37:45;;;;;;;24.20;22.00;;;10.30;98.60;;;;;;5054379;28;20586;-47
2022/04/25 05:40:12;;;;;;;23.33;21.13;;;10.40;98.70;;;;;;5051631;28;20468;-47
2022/04/25 05:42:40;;;;;;;23.20;21.03;;;10.50;98.70;;;;;;5056121;28;20440;-47
2022/04/25 05:45:10;;;;;;;23.00;20.80;;;10.50;98.60;;;;;;5038336;28;20425;-47
2022/04/25 05:47:37;;;;;;;22.90;20.90;;;10.60;98.60;;;;;;5056033;28;20795;-47
2022/04/25 05:52:48;;;;;;;22.97;20.87;;;10.70;98.40;;;;;;5057244;28;20478;-47
2022/04/25 05:55:14;;;;;;;22.20;20.10;;;10.80;98.30;;;;;;5056865;28;20468;-47
2022/04/25 05:57:43;;;;;;;23.70;21.47;;;10.90;98.30;;;;;;5052566;28;20209;-47
2022/04/25 06:00:11;;;;;;;22.17;20.10;;;11.00;98.30;;;;;;5069406;28;20818;-45
2022/04/25 06:02:41;;;;;;;21.37;19.43;;;11.20;98.30;;;;;;5073364;28;20495;-45
2022/04/25 06:05:07;;;;;;;22.60;20.57;;;11.40;98.20;;;;;;5059101;28;20428;-45
2022/04/25 06:07:34;;;;;;;22.77;20.53;;;11.50;98.00;;;;;;5075820;28;20439;-45
2022/04/25 06:10:01;;;;;;;22.73;20.73;;;11.70;97.80;;;;;;5041751;28;20428;-44
2022/04/25 06:12:29;;;;;;;22.27;20.27;;;11.80;97.60;;;;;;5074723;28;20693;-45
2022/04/25 06:15:00;;;;;;;22.60;20.50;;;11.90;97.30;;;;;;5074844;28;20900;-45
2022/04/25 06:17:26;;;;;;;22.17;20.13;;;12.00;97.20;;;;;;5073744;28;20424;-47
2022/04/25 06:19:52;;;;;;;23.27;21.17;;;12.10;97.00;;;;;;5057352;28;20511;-45
2022/04/25 06:22:20;;;;;;;20.77;18.80;;;12.20;96.90;;;;;;5076716;28;20421;-45
2022/04/25 06:24:46;;;;;;;20.73;18.80;;;12.20;96.70;;;;;;5057084;28;20908;-46
2022/04/25 06:27:13;;;;;;;21.53;19.53;;;12.30;96.70;;;;;;5058335;28;20455;-45
2022/04/25 06:29:42;;;;;;;22.60;20.50;;;12.40;96.60;;;;;;5074236;28;20434;-45
2022/04/25 06:32:08;;;;;;;22.60;20.60;;;12.50;96.50;;;;;;5075459;28;20824;-45
2022/04/25 06:34:34;;;;;;;20.63;18.77;;;12.50;96.30;;;;;;5075650;28;20725;-46
2022/04/25 06:37:00;;;;;;;21.00;19.10;;;12.60;96.20;;;;;;5058770;28;20443;-46
2022/04/25 06:39:26;;;;;;;19.97;18.13;;;12.70;96.10;;;;;;5057592;28;20240;-46
2022/04/25 06:41:51;;;;;;;19.47;17.70;;;12.90;96.00;;;;;;5076089;28;20766;-46
2022/04/25 06:44:17;;;;;;;18.27;16.67;;;13.10;95.90;;;;;;5075621;28;20661;-45
2022/04/25 06:46:43;;;;;;;19.70;18.00;;;13.40;95.70;;;;;;5073552;28;20217;-45
2022/04/25 06:49:23;;;;;;;18.43;16.73;;;13.60;95.30;;;;;;5073236;28;20188;-45
2022/04/25 06:51:50;;;;;;;19.93;18.13;;;13.70;94.80;;;;;;5073842;28;20431;-45
2022/04/25 06:54:16;;;;;;;6.70;6.10;;;13.90;94.30;;;;;;5055543;28;20444;-46
2022/04/25 06:56:42;;;;;;;11.03;4.67;;;14.10;94.00;;;;;;5074052;28;20467;-46
2022/04/25 06:59:07;;;;;;;5.40;4.77;;;14.40;93.70;;;;;;5075048;28;20519;-43
2022/04/25 07:01:33;;;;;;;8.63;7.83;;;14.80;93.10;;;;;;5073674;28;20258;-42
2022/04/25 07:03:59;;;;;;;12.20;10.53;;;15.10;92.10;;;;;;5074712;28;20178;-42
2022/04/25 07:06:25;;;;;;;16.17;14.67;;;15.20;91.60;;;;;;5075010;28;20431;-43
2022/04/25 07:08:52;;;;;;;17.03;15.53;;;15.30;91.20;;;;;;5073976;28;20849;-42
2022/04/25 07:11:17;;;;;;;18.00;16.50;;;15.30;90.90;;;;;;5075103;28;20420;-44
2022/04/25 07:13:45;;;;;;;17.87;16.37;;;15.30;90.80;;;;;;5074702;28;20428;-43
2022/04/25 07:16:12;;;;;;;17.27;15.87;;;15.40;90.80;;;;;;5074919;28;20466;-42
2022/04/25 07:18:38;;;;;;;17.57;15.97;;;15.50;90.70;;;;;;5075242;28;20432;-44
2022/04/25 07:29:17;;;;;;;15.10;13.80;;;16.40;89.20;;;;;;5075429;28;20430;-46
2022/04/25 07:31:43;;;;;;;13.57;12.47;;;16.50;88.40;;;;;;5077030;28;20440;-45
2022/04/25 07:34:09;;;;;;;14.07;12.87;;;16.50;87.90;;;;;;5075202;28;20679;-44
2022/04/25 07:36:36;;;;;;;14.77;13.53;;;16.50;87.80;;;;;;5071364;28;20220;-45
2022/04/25 07:39:03;;;;;;;12.80;11.73;;;16.50;87.90;;;;;;5075874;28;20753;-44
2022/04/25 07:41:28;;;;;;;12.53;11.53;;;16.50;87.90;;;;;;5071938;28;20444;-45
2022/04/25 07:43:54;;;;;;;12.30;11.30;;;16.60;87.70;;;;;;5076269;28;20431;-42
2022/04/25 07:46:23;;;;;;;14.37;13.17;;;16.60;86.50;;;;;;5075214;28;20701;-43
2022/04/25 07:48:49;;;;;;;13.83;12.63;;;16.70;85.90;;;;;;5074879;28;20184;-46
2022/04/25 07:51:15;;;;;;;13.07;11.97;;;16.70;85.20;;;;;;5073854;28;20485;-43
2022/04/25 07:53:41;;;;;;;13.33;12.23;;;16.60;84.60;;;;;;5074625;28;20443;-43
2022/04/25 07:56:07;;;;;;;12.67;11.67;;;16.60;84.60;;;;;;5074418;28;20447;-43
2022/04/25 07:58:34;;;;;;;13.23;12.13;;;16.50;84.50;;;;;;5074209;28;20841;-43
2022/04/25 08:01:01;;;;;;;13.17;12.03;;;16.50;84.50;;;;;;5059107;28;20461;-43
2022/04/25 08:03:27;;;;;;;14.40;13.10;;;16.40;84.10;;;;;;5075244;28;20412;-44
2022/04/25 08:05:55;;;;;;;14.90;13.70;;;16.30;83.90;;;;;;5075242;28;20841;-44
2022/04/25 08:08:21;;;;;;;16.07;14.73;;;16.20;83.90;;;;;;5057357;28;20420;-43
2022/04/25 08:10:46;;;;;;;15.97;14.57;;;16.00;84.00;;;;;;5074097;28;20481;-42
2022/04/25 08:18:41;;;;;;;15.87;14.57;;;16.20;85.20;;;;;;5074258;28;20911;-43
2022/04/25 08:21:06;;;;;;;16.13;14.83;;;16.70;84.60;;;;;;5076159;28;20449;-42
2022/04/25 08:23:32;;;;;;;14.67;13.47;;;17.10;83.50;;;;;;5057793;28;20217;-44
2022/04/25 08:25:58;;;;;;;14.03;12.90;;;17.40;82.30;;;;;;5076473;28;20178;-44
2022/04/25 08:28:25;;;;;;;13.50;12.40;;;17.60;81.40;;;;;;5076430;28;20420;-44
2022/04/25 08:30:52;;;;;;;15.90;14.60;;;17.80;80.70;;;;;;5056769;28;20613;-43
2022/04/25 08:33:19;;;;;;;15.13;13.80;;;17.90;79.60;;;;;;5076189;28;20674;-44
2022/04/25 08:35:45;;;;;;;13.97;12.70;;;18.00;79.10;;;;;;5073732;28;21336;-44
2022/04/25 08:38:11;;;;;;;12.93;11.87;;;18.00;78.60;;;;;;5075419;28;20701;-44
2022/04/25 08:40:41;;;;;;;12.33;11.33;;;18.10;78.40;;;;;;5074646;28;20463;-47
2022/04/25 08:43:07;;;;;;;12.80;11.80;;;18.10;78.40;;;;;;5074588;28;20443;-47
2022/04/25 08:45:34;;;;;;;13.37;12.30;;;18.10;78.10;;;;;;5057572;28;20736;-45
2022/04/25 08:48:01;;;;;;;9.87;9.07;;;18.20;77.70;;;;;;5072507;28;20424;-48
2022/04/25 08:50:28;;;;;;;7.40;5.80;;;18.20;77.60;;;;;;5075429;28;20817;-47
2022/04/25 08:52:56;;;;;;;7.27;6.63;;;18.40;77.60;;;;;;5074268;28;20822;-47
2022/04/25 08:55:22;;;;;;;6.17;5.67;;;18.70;77.30;;;;;;5058483;28;20907;-47
2022/04/25 08:57:50;;;;;;;8.50;7.80;;;18.90;76.70;;;;;;5072677;28;20513;-44
2022/04/25 09:00:16;;;;;;;8.87;8.07;;;19.10;75.80;;;;;;5055913;28;20435;-45
2022/04/25 09:02:44;;;;;;;10.17;9.37;;;19.30;75.00;;;;;;5055811;28;20826;-46
2022/04/25 09:05:12;;;;;;;14.03;12.93;;;19.30;73.80;;;;;;5074088;28;20792;-44
2022/04/25 09:07:39;;;;;;;12.77;11.77;;;19.20;72.00;;;;;;5076031;28;20421;-44
2022/04/25 09:10:13;;;;;;;12.87;11.73;;;19.00;70.80;;;;;;5075621;28;20422;-45
2022/04/25 09:12:42;;;;;;;12.30;11.37;;;18.90;69.80;;;;;;5074506;28;20411;-44
2022/04/25 09:15:08;;;;;;;12.93;11.63;;;18.70;70.20;;;;;;5074687;28;20471;-43
2022/04/25 09:17:38;;;;;;;12.47;11.53;;;18.60;70.60;;;;;;5075948;28;20768;-44
2022/04/25 09:20:05;;;;;;;13.23;12.20;;;18.60;71.10;;;;;;5040975;28;20422;-47
2022/04/25 09:22:33;;;;;;;13.73;12.63;;;18.50;71.50;;;;;;5074330;28;20462;-46
2022/04/25 09:25:04;;;;;;;12.53;11.43;;;18.50;70.90;;;;;;5075111;28;20418;-48
2022/04/25 09:27:30;;;;;;;11.00;10.10;;;18.70;70.50;;;;;;5076509;28;20462;-46
2022/04/25 09:29:55;;;;;;;10.40;9.60;;;19.30;70.90;;;;;;5076881;28;20420;-45
2022/04/25 09:32:31;;;;;;;9.63;8.93;;;20.10;70.40;;;;;;5058703;28;20186;-43
2022/04/25 09:35:00;;;;;;;9.90;9.10;;;21.00;68.60;;;;;;5076471;28;20276;-44
2022/04/25 09:37:47;;;;;;;9.60;8.83;;;21.80;66.40;;;;;;5076697;28;20812;-45
2022/04/25 09:40:19;;;;;;;11.00;10.20;;;22.90;64.30;;;;;;5074733;28;20480;-44
2022/04/25 09:42:46;;;;;;;9.77;8.97;;;23.60;61.70;;;;;;5074197;28;20443;-44
2022/04/25 09:45:12;;;;;;;9.03;8.13;;;24.30;59.60;;;;;;5075528;28;20424;-46
2022/04/25 09:47:38;;;;;;;9.07;8.33;;;25.10;58.30;;;;;;5077212;28;20410;-43
2022/04/25 09:50:13;;;;;;;10.93;10.03;;;25.60;56.30;;;;;;5075734;28;20606;-46
2022/04/25 09:52:55;;;;;;;9.63;8.93;;;26.10;54.40;;;;;;5075386;28;20480;-46
2022/04/25 09:55:22;;;;;;;9.13;8.43;;;26.20;52.70;;;;;;5057881;28;20715;-44
2022/04/25 09:57:50;;;;;;;10.50;9.70;;;26.10;51.50;;;;;;5077184;28;20748;-44
2022/04/25 10:00:38;;;;;;;9.03;8.23;;;25.70;50.10;;;;;;5057665;28;20424;-45
2022/04/25 10:03:05;;;;;;;9.27;8.60;;;25.30;50.20;;;;;;5075364;28;20451;-43
2022/04/25 10:05:46;;;;;;;8.33;7.73;;;25.00;50.20;;;;;;5071449;28;20432;-46
2022/04/25 10:08:14;;;;;;;8.87;8.27;;;24.60;50.60;;;;;;5076916;28;20699;-45
2022/04/25 10:10:45;;;;;;;9.20;8.40;;;24.30;50.80;;;;;;5057084;28;20450;-43
2022/04/25 10:13:12;;;;;;;7.93;7.33;;;23.90;51.00;;;;;;5058800;28;20845;-46
2022/04/25 10:15:39;;;;;;;8.80;8.17;;;23.60;51.40;;;;;;5074647;28;20472;-43
2022/04/25 10:18:06;;;;;;;8.50;7.90;;;23.20;51.70;;;;;;5077446;28;20422;-45
2022/04/25 10:20:34;;;;;;;8.13;7.47;;;23.00;52.10;;;;;;5059093;28;20432;-46
2022/04/25 10:23:03;;;;;;;9.17;8.57;;;22.80;52.50;;;;;;5072668;28;20566;-46
2022/04/25 10:25:28;;;;;;;9.57;8.80;;;22.60;52.70;;;;;;5057789;28;20450;-46
2022/04/25 10:28:01;;;;;;;8.60;7.90;;;22.50;53.00;;;;;;5076108;28;20419;-45
2022/04/25 10:30:33;;;;;;;8.27;7.67;;;22.40;53.30;;;;;;5059080;28;20304;-45
2022/04/25 10:33:21;;;;;;;9.30;8.60;;;22.30;53.50;;;;;;5076436;28;20421;-44
2022/04/25 10:35:51;;;;;;;8.87;8.23;;;22.20;53.50;;;;;;5074183;28;20466;-45
2022/04/25 10:39:03;;;;;;;8.50;7.90;;;22.00;53.50;;;;;;5074602;28;20444;-46
2022/04/25 10:44:17;;;;;;;9.70;8.90;;;21.80;53.30;;;;;;5060058;28;20565;-45
2022/04/25 10:47:05;;;;;;;9.30;8.60;;;21.70;54.00;;;;;;5070490;28;20831;-45
2022/04/25 10:49:45;;;;;;;9.40;8.70;;;21.60;53.70;;;;;;5073220;28;20452;-45
2022/04/25 10:53:17;;;;;;;10.33;9.53;;;21.50;53.70;;;;;;5075946;28;20423;-46
2022/04/25 10:55:36;;;;;;;10.30;9.60;;;21.40;53.60;;;;;;5061515;28;20572;-44
2022/04/25 10:58:02;;;;;;;9.00;8.30;;;21.30;53.80;;;;;;5074146;28;20407;-44
2022/04/25 11:00:45;;;;;;;9.60;8.80;;;21.10;53.90;;;;;;5074182;28;20442;-44
2022/04/25 11:03:12;;;;;;;9.77;9.00;;;20.90;54.30;;;;;;5074631;28;20181;-43
2022/04/25 11:05:43;;;;;;;9.67;8.87;;;20.60;54.50;;;;;;5073783;28;20425;-44
2022/04/25 11:08:23;;;;;;;10.13;9.30;;;20.40;55.00;;;;;;5072728;28;20701;-44
2022/04/25 11:10:51;;;;;;;10.10;9.23;;;20.10;55.60;;;;;;5072017;28;20691;-47
2022/04/25 11:13:18;;;;;;;12.20;11.20;;;19.80;56.10;;;;;;5075138;28;20410;-45
2022/04/25 11:15:52;;;;;;;11.90;10.80;;;19.50;56.50;;;;;;5073803;28;20483;-43
2022/04/25 11:18:33;;;;;;;12.37;11.40;;;19.20;56.90;;;;;;5073867;28;20422;-46
2022/04/25 11:21:14;;;;;;;12.40;11.30;;;18.80;57.70;;;;;;5073785;28;20419;-46
2022/04/25 11:23:43;;;;;;;12.53;11.43;;;18.60;58.90;;;;;;5053126;28;20719;-44
2022/04/25 11:26:33;;;;;;;11.73;10.80;;;18.30;60.10;;;;;;5073914;28;20455;-46
2022/04/25 11:29:09;;;;;;;10.50;9.70;;;18.10;61.80;;;;;;5033740;28;20493;-44
2022/04/25 11:31:39;;;;;;;9.50;8.70;;;17.80;63.20;;;;;;5073913;28;20422;-43
2022/04/25 11:34:07;;;;;;;8.90;8.20;;;17.60;64.20;;;;;;5073928;28;20412;-43
2022/04/25 11:36:40;;;;;;;9.40;8.70;;;17.40;64.20;;;;;;5072317;28;20463;-44
2022/04/25 11:41:50;;;;;;;11.97;10.97;;;17.10;66.50;;;;;;5072220;28;20521;-44
2022/04/25 11:44:16;;;;;;;11.47;10.57;;;16.90;68.10;;;;;;5074625;28;20432;-44
2022/04/25 11:46:43;;;;;;;11.80;10.80;;;16.80;70.10;;;;;;5074032;28;20756;-43
2022/04/25 11:49:09;;;;;;;11.90;10.80;;;16.70;72.30;;;;;;5074568;28;20189;-45
2022/04/25 11:51:39;;;;;;;11.60;10.50;;;16.70;74.10;;;;;;5071912;28;20876;-46
2022/04/25 11:54:09;;;;;;;10.53;9.63;;;16.70;75.40;;;;;;5075783;28;20411;-42
2022/04/25 11:56:42;;;;;;;10.33;9.43;;;16.70;76.40;;;;;;5055995;28;20454;-45
2022/04/25 11:59:12;;;;;;;10.87;9.87;;;16.80;77.20;;;;;;5074226;28;20420;-43
2022/04/25 12:01:42;;;;;;;10.23;9.40;;;16.90;77.70;;;;;;5073408;28;20429;-45
2022/04/25 12:04:20;;;;;;;9.50;8.70;;;17.00;78.30;;;;;;5075134;28;20750;-44
2022/04/25 12:07:10;;;;;;;9.57;8.77;;;17.10;78.90;;;;;;5074219;28;20502;-44
2022/04/25 12:15:34;;;;;;;10.23;9.27;;;17.60;76.10;;;;;;5057859;28;20451;-45
2022/04/25 12:18:22;;;;;;;9.00;8.30;;;17.80;75.60;;;;;;5073083;28;20439;-45
2022/04/25 12:20:49;;;;;;;9.30;8.50;;;18.10;74.80;;;;;;5072472;28;20472;-44
2022/04/25 12:23:25;;;;;;;8.70;8.00;;;18.40;74.80;;;;;;5072134;28;20420;-44
2022/04/25 12:25:52;;;;;;;8.93;8.20;;;18.60;74.60;;;;;;5074131;28;20407;-42
2022/04/25 12:28:26;;;;;;;9.37;8.27;;;18.80;74.20;;;;;;5074370;28;20526;-43
2022/04/25 12:31:03;;;;;;;8.90;8.00;;;18.90;73.20;;;;;;5073278;28;20432;-44
2022/04/25 12:33:43;;;;;;;7.87;7.17;;;19.00;71.90;;;;;;5073389;28;20436;-44
2022/04/25 12:36:19;;;;;;;7.63;7.03;;;19.10;71.00;;;;;;5073966;28;20487;-46
2022/04/25 12:39:08;;;;;;;7.03;6.43;;;19.00;70.30;;;;;;5074707;28;20459;-47
2022/04/25 12:41:38;;;;;;;7.23;6.63;;;19.10;69.90;;;;;;5073685;28;20450;-45
2022/04/25 12:44:10;;;;;;;6.80;6.30;;;19.20;70.10;;;;;;5075195;28;20437;-43
2022/04/25 12:46:47;;;;;;;7.40;6.07;;;19.50;70.00;;;;;;5073580;28;20755;-45
2022/04/25 12:49:22;;;;;;;6.37;5.77;;;19.80;68.70;;;;;;5074471;28;20418;-45
2022/04/25 12:51:54;;;;;;;7.90;6.23;;;20.40;68.00;;;;;;5073390;28;20455;-46
2022/04/25 12:54:55;;;;;;;6.10;5.60;;;21.00;67.00;;;;;;5075396;28;20413;-44
2022/04/25 12:57:28;;;;;;;5.83;5.23;;;21.90;64.90;;;;;;5012419;28;20519;-46
2022/04/25 12:59:54;;;;;;;5.07;4.67;;;22.80;60.60;;;;;;5065297;28;20475;-46
2022/04/25 13:02:46;;;;;;;4.93;4.53;;;23.50;59.20;;;;;;5078333;28;20832;-44
2022/04/25 13:05:13;;;;;;;4.13;3.83;;;24.30;56.40;;;;;;5077577;28;20182;-45
2022/04/25 13:07:46;;;;;;;3.67;3.37;;;25.50;53.70;;;;;;5075949;28;20759;-47
2022/04/25 13:10:21;;;;;;;3.33;3.10;;;26.40;51.30;;;;;;5061234;28;20412;-45
2022/04/25 13:12:50;;;;;;;3.50;3.20;;;27.40;49.00;;;;;;5074109;28;20440;-44
2022/04/25 13:15:20;;;;;;;8.00;4.50;;;28.30;47.30;;;;;;5077079;28;20530;-44
2022/04/25 13:17:48;;;;;;;7.23;4.00;;;29.10;46.20;;;;;;5078351;28;20580;-44
2022/04/25 13:20:16;;;;;;;3.77;3.40;;;29.70;45.30;;;;;;5076028;28;20529;-46